sensor_id;sensor_type;location;lat;lon;timestamp;P1;durP1;ratioP1;P2;durP2;ratioP2
5704;SDS011;2877;48.238;11.160;2023-09-12T00:00:44;9.77;;;8.63;;
5704;SDS011;2877;48.238;11.160;2023-09-12T00:03:10;10.80;;;8.97;;
5704;SDS011;2877;48.238;11.160;2023-09-12T00:05:36;9.77;;;8.87;;
5704;SDS011;2877;48.238;11.160;2023-09-12T00:08:02;11.40;;;9.30;;
5704;SDS011;2877;48.238;11.160;2023-09-12T00:10:28;16.40;;;8.60;;
5704;SDS011;2877;48.238;11.160;2023-09-12T00:12:54;13.70;;;9.40;;
5704;SDS011;2877;48.238;11.160;2023-09-12T00:15:20;9.57;;;8.10;;
5704;SDS011;2877;48.238;11.160;2023-09-12T00:17:46;10.43;;;9.30;;
5704;SDS011;2877;48.238;11.160;2023-09-12T00:20:13;12.70;;;9.27;;
5704;SDS011;2877;48.238;11.160;2023-09-12T00:22:39;9.60;;;8.60;;
5704;SDS011;2877;48.238;11.160;2023-09-12T00:25:05;10.90;;;9.00;;
5704;SDS011;2877;48.238;11.160;2023-09-12T00:27:30;13.50;;;10.17;;
5704;SDS011;2877;48.238;11.160;2023-09-12T00:29:56;14.27;;;9.40;;
5704;SDS011;2877;48.238;11.160;2023-09-12T00:32:21;10.57;;;9.10;;
5704;SDS011;2877;48.238;11.160;2023-09-12T00:34:47;10.37;;;9.37;;
5704;SDS011;2877;48.238;11.160;2023-09-12T00:37:12;11.80;;;10.07;;
5704;SDS011;2877;48.238;11.160;2023-09-12T00:39:38;10.73;;;9.00;;
5704;SDS011;2877;48.238;11.160;2023-09-12T00:42:03;11.53;;;10.30;;
5704;SDS011;2877;48.238;11.160;2023-09-12T00:44:32;13.37;;;10.50;;
5704;SDS011;2877;48.238;11.160;2023-09-12T00:46:58;11.13;;;9.97;;
5704;SDS011;2877;48.238;11.160;2023-09-12T00:49:25;12.23;;;10.93;;
5704;SDS011;2877;48.238;11.160;2023-09-12T00:51:53;11.53;;;10.33;;
5704;SDS011;2877;48.238;11.160;2023-09-12T00:54:20;13.67;;;10.07;;
5704;SDS011;2877;48.238;11.160;2023-09-12T00:56:46;12.77;;;9.83;;
5704;SDS011;2877;48.238;11.160;2023-09-12T00:59:11;15.67;;;10.40;;
5704;SDS011;2877;48.238;11.160;2023-09-12T01:01:39;11.60;;;10.00;;
5704;SDS011;2877;48.238;11.160;2023-09-12T01:04:04;13.90;;;11.50;;
5704;SDS011;2877;48.238;11.160;2023-09-12T01:06:30;12.43;;;10.00;;
5704;SDS011;2877;48.238;11.160;2023-09-12T01:08:58;13.23;;;11.20;;
5704;SDS011;2877;48.238;11.160;2023-09-12T01:11:24;16.70;;;10.27;;
5704;SDS011;2877;48.238;11.160;2023-09-12T01:13:51;14.10;;;10.60;;
5704;SDS011;2877;48.238;11.160;2023-09-12T01:16:16;12.93;;;9.80;;
5704;SDS011;2877;48.238;11.160;2023-09-12T01:18:42;13.10;;;10.43;;
5704;SDS011;2877;48.238;11.160;2023-09-12T01:26:47;10.63;;;9.43;;
5704;SDS011;2877;48.238;11.160;2023-09-12T01:29:21;12.00;;;10.20;;
5704;SDS011;2877;48.238;11.160;2023-09-12T01:31:49;11.23;;;10.03;;
5704;SDS011;2877;48.238;11.160;2023-09-12T01:34:15;13.13;;;9.90;;
5704;SDS011;2877;48.238;11.160;2023-09-12T01:36:41;12.93;;;10.13;;
5704;SDS011;2877;48.238;11.160;2023-09-12T01:39:06;11.83;;;9.70;;
5704;SDS011;2877;48.238;11.160;2023-09-12T01:41:34;11.03;;;9.93;;
5704;SDS011;2877;48.238;11.160;2023-09-12T01:44:04;13.80;;;10.40;;
5704;SDS011;2877;48.238;11.160;2023-09-12T01:46:31;14.20;;;10.50;;
5704;SDS011;2877;48.238;11.160;2023-09-12T01:48:59;14.53;;;9.17;;
5704;SDS011;2877;48.238;11.160;2023-09-12T01:51:25;14.83;;;11.10;;
5704;SDS011;2877;48.238;11.160;2023-09-12T01:53:51;12.93;;;9.70;;
5704;SDS011;2877;48.238;11.160;2023-09-12T01:56:19;14.00;;;10.50;;
5704;SDS011;2877;48.238;11.160;2023-09-12T01:58:45;12.73;;;9.93;;
5704;SDS011;2877;48.238;11.160;2023-09-12T02:01:11;11.00;;;9.90;;
5704;SDS011;2877;48.238;11.160;2023-09-12T02:03:36;12.10;;;9.87;;
5704;SDS011;2877;48.238;11.160;2023-09-12T02:06:02;11.77;;;10.53;;
5704;SDS011;2877;48.238;11.160;2023-09-12T02:08:27;14.10;;;10.60;;
5704;SDS011;2877;48.238;11.160;2023-09-12T02:10:53;14.27;;;10.93;;
5704;SDS011;2877;48.238;11.160;2023-09-12T02:13:19;15.37;;;11.13;;
5704;SDS011;2877;48.238;11.160;2023-09-12T02:15:45;15.20;;;10.10;;
5704;SDS011;2877;48.238;11.160;2023-09-12T02:18:10;17.33;;;10.33;;
5704;SDS011;2877;48.238;11.160;2023-09-12T02:20:37;13.60;;;11.73;;
5704;SDS011;2877;48.238;11.160;2023-09-12T02:23:05;13.20;;;11.10;;
5704;SDS011;2877;48.238;11.160;2023-09-12T02:25:31;11.43;;;10.23;;
5704;SDS011;2877;48.238;11.160;2023-09-12T02:27:56;14.30;;;10.80;;
5704;SDS011;2877;48.238;11.160;2023-09-12T02:30:22;16.00;;;10.73;;
5704;SDS011;2877;48.238;11.160;2023-09-12T02:32:47;12.50;;;10.80;;
5704;SDS011;2877;48.238;11.160;2023-09-12T02:35:13;14.23;;;10.97;;
5704;SDS011;2877;48.238;11.160;2023-09-12T02:37:38;15.47;;;10.93;;
5704;SDS011;2877;48.238;11.160;2023-09-12T02:40:04;14.50;;;11.10;;
5704;SDS011;2877;48.238;11.160;2023-09-12T02:42:31;15.70;;;10.57;;
5704;SDS011;2877;48.238;11.160;2023-09-12T02:44:56;15.27;;;11.53;;
5704;SDS011;2877;48.238;11.160;2023-09-12T02:47:22;16.27;;;11.67;;
5704;SDS011;2877;48.238;11.160;2023-09-12T02:49:47;15.90;;;11.57;;
5704;SDS011;2877;48.238;11.160;2023-09-12T02:52:13;15.33;;;11.60;;
5704;SDS011;2877;48.238;11.160;2023-09-12T02:54:38;12.03;;;10.70;;
5704;SDS011;2877;48.238;11.160;2023-09-12T02:57:04;12.33;;;11.03;;
5704;SDS011;2877;48.238;11.160;2023-09-12T02:59:29;15.40;;;10.23;;
5704;SDS011;2877;48.238;11.160;2023-09-12T03:01:55;11.13;;;9.93;;
5704;SDS011;2877;48.238;11.160;2023-09-12T03:04:21;16.33;;;11.50;;
5704;SDS011;2877;48.238;11.160;2023-09-12T03:06:46;16.63;;;10.47;;
5704;SDS011;2877;48.238;11.160;2023-09-12T03:09:13;14.90;;;11.40;;
5704;SDS011;2877;48.238;11.160;2023-09-12T03:11:39;13.43;;;11.97;;
5704;SDS011;2877;48.238;11.160;2023-09-12T03:14:04;12.73;;;10.43;;
5704;SDS011;2877;48.238;11.160;2023-09-12T03:16:30;11.43;;;10.23;;
5704;SDS011;2877;48.238;11.160;2023-09-12T03:18:55;16.13;;;10.40;;
5704;SDS011;2877;48.238;11.160;2023-09-12T03:21:21;11.50;;;10.00;;
5704;SDS011;2877;48.238;11.160;2023-09-12T03:23:46;18.77;;;11.37;;
5704;SDS011;2877;48.238;11.160;2023-09-12T03:26:12;12.27;;;11.07;;
5704;SDS011;2877;48.238;11.160;2023-09-12T03:28:37;13.23;;;10.93;;
5704;SDS011;2877;48.238;11.160;2023-09-12T03:31:07;14.47;;;10.37;;
5704;SDS011;2877;48.238;11.160;2023-09-12T03:33:37;14.70;;;10.17;;
5704;SDS011;2877;48.238;11.160;2023-09-12T03:36:03;11.50;;;10.30;;
5704;SDS011;2877;48.238;11.160;2023-09-12T03:38:29;10.73;;;9.73;;
5704;SDS011;2877;48.238;11.160;2023-09-12T03:40:55;16.87;;;10.37;;
5704;SDS011;2877;48.238;11.160;2023-09-12T03:43:20;11.80;;;9.70;;
5704;SDS011;2877;48.238;11.160;2023-09-12T03:45:46;11.23;;;9.87;;
5704;SDS011;2877;48.238;11.160;2023-09-12T03:48:11;14.30;;;9.67;;
5704;SDS011;2877;48.238;11.160;2023-09-12T03:50:37;11.77;;;10.00;;
5704;SDS011;2877;48.238;11.160;2023-09-12T03:53:02;13.40;;;10.23;;
5704;SDS011;2877;48.238;11.160;2023-09-12T03:55:28;12.47;;;10.57;;
5704;SDS011;2877;48.238;11.160;2023-09-12T03:57:53;14.30;;;10.87;;
5704;SDS011;2877;48.238;11.160;2023-09-12T04:00:19;13.50;;;11.07;;
5704;SDS011;2877;48.238;11.160;2023-09-12T04:02:45;12.20;;;10.63;;
5704;SDS011;2877;48.238;11.160;2023-09-12T04:05:10;11.73;;;10.43;;
5704;SDS011;2877;48.238;11.160;2023-09-12T04:07:36;15.20;;;10.47;;
5704;SDS011;2877;48.238;11.160;2023-09-12T04:10:01;11.80;;;10.57;;
5704;SDS011;2877;48.238;11.160;2023-09-12T04:12:27;14.00;;;10.53;;
5704;SDS011;2877;48.238;11.160;2023-09-12T04:14:53;12.63;;;10.23;;
5704;SDS011;2877;48.238;11.160;2023-09-12T04:17:19;12.13;;;10.70;;
5704;SDS011;2877;48.238;11.160;2023-09-12T04:19:45;13.37;;;10.80;;
5704;SDS011;2877;48.238;11.160;2023-09-12T04:22:11;12.90;;;10.80;;
5704;SDS011;2877;48.238;11.160;2023-09-12T04:24:36;16.27;;;9.83;;
5704;SDS011;2877;48.238;11.160;2023-09-12T04:27:02;13.13;;;11.20;;
5704;SDS011;2877;48.238;11.160;2023-09-12T04:29:28;12.07;;;10.73;;
5704;SDS011;2877;48.238;11.160;2023-09-12T04:31:54;13.40;;;10.93;;
5704;SDS011;2877;48.238;11.160;2023-09-12T04:34:24;11.20;;;10.10;;
5704;SDS011;2877;48.238;11.160;2023-09-12T04:36:50;11.00;;;9.90;;
5704;SDS011;2877;48.238;11.160;2023-09-12T04:39:16;18.40;;;11.07;;
5704;SDS011;2877;48.238;11.160;2023-09-12T04:41:42;12.47;;;10.10;;
5704;SDS011;2877;48.238;11.160;2023-09-12T04:44:07;12.73;;;10.70;;
5704;SDS011;2877;48.238;11.160;2023-09-12T04:46:33;13.20;;;11.03;;
5704;SDS011;2877;48.238;11.160;2023-09-12T04:48:59;12.57;;;10.47;;
5704;SDS011;2877;48.238;11.160;2023-09-12T04:51:24;13.10;;;11.43;;
5704;SDS011;2877;48.238;11.160;2023-09-12T04:53:52;16.10;;;11.53;;
5704;SDS011;2877;48.238;11.160;2023-09-12T04:56:17;12.60;;;11.30;;
5704;SDS011;2877;48.238;11.160;2023-09-12T04:58:43;12.60;;;10.30;;
5704;SDS011;2877;48.238;11.160;2023-09-12T05:01:09;14.60;;;11.67;;
5704;SDS011;2877;48.238;11.160;2023-09-12T05:03:34;13.90;;;11.40;;
5704;SDS011;2877;48.238;11.160;2023-09-12T05:06:00;13.37;;;11.17;;
5704;SDS011;2877;48.238;11.160;2023-09-12T05:08:26;16.03;;;10.73;;
5704;SDS011;2877;48.238;11.160;2023-09-12T05:10:52;12.73;;;10.80;;
5704;SDS011;2877;48.238;11.160;2023-09-12T05:13:17;15.23;;;10.50;;
5704;SDS011;2877;48.238;11.160;2023-09-12T05:15:44;16.20;;;11.60;;
5704;SDS011;2877;48.238;11.160;2023-09-12T05:18:11;12.40;;;11.00;;
5704;SDS011;2877;48.238;11.160;2023-09-12T05:20:37;14.90;;;11.03;;
5704;SDS011;2877;48.238;11.160;2023-09-12T05:23:03;12.87;;;11.53;;
5704;SDS011;2877;48.238;11.160;2023-09-12T05:25:28;12.50;;;11.20;;
5704;SDS011;2877;48.238;11.160;2023-09-12T05:27:55;16.40;;;11.50;;
5704;SDS011;2877;48.238;11.160;2023-09-12T05:30:21;14.33;;;11.77;;
5704;SDS011;2877;48.238;11.160;2023-09-12T05:32:46;12.07;;;10.87;;
5704;SDS011;2877;48.238;11.160;2023-09-12T05:35:12;13.10;;;10.40;;
5704;SDS011;2877;48.238;11.160;2023-09-12T05:37:37;11.70;;;10.53;;
5704;SDS011;2877;48.238;11.160;2023-09-12T05:40:03;12.67;;;9.90;;
5704;SDS011;2877;48.238;11.160;2023-09-12T05:42:29;11.37;;;9.70;;
5704;SDS011;2877;48.238;11.160;2023-09-12T05:44:55;23.30;;;10.50;;
5704;SDS011;2877;48.238;11.160;2023-09-12T05:47:21;11.57;;;10.37;;
5704;SDS011;2877;48.238;11.160;2023-09-12T05:49:47;13.40;;;10.90;;
5704;SDS011;2877;48.238;11.160;2023-09-12T05:52:13;11.30;;;10.10;;
5704;SDS011;2877;48.238;11.160;2023-09-12T05:54:39;12.37;;;10.67;;
5704;SDS011;2877;48.238;11.160;2023-09-12T05:57:05;11.33;;;10.13;;
5704;SDS011;2877;48.238;11.160;2023-09-12T05:59:32;13.00;;;9.77;;
5704;SDS011;2877;48.238;11.160;2023-09-12T06:01:58;11.47;;;9.80;;
5704;SDS011;2877;48.238;11.160;2023-09-12T06:04:23;14.57;;;10.97;;
5704;SDS011;2877;48.238;11.160;2023-09-12T06:06:49;10.90;;;9.77;;
5704;SDS011;2877;48.238;11.160;2023-09-12T06:09:14;14.13;;;9.00;;
5704;SDS011;2877;48.238;11.160;2023-09-12T06:11:40;13.03;;;9.50;;
5704;SDS011;2877;48.238;11.160;2023-09-12T06:14:05;11.77;;;10.00;;
5704;SDS011;2877;48.238;11.160;2023-09-12T06:16:31;14.83;;;9.20;;
5704;SDS011;2877;48.238;11.160;2023-09-12T06:18:56;14.57;;;9.67;;
5704;SDS011;2877;48.238;11.160;2023-09-12T06:21:22;11.30;;;10.10;;
5704;SDS011;2877;48.238;11.160;2023-09-12T06:23:48;11.00;;;9.70;;
5704;SDS011;2877;48.238;11.160;2023-09-12T06:26:15;12.37;;;9.60;;
5704;SDS011;2877;48.238;11.160;2023-09-12T06:28:40;10.80;;;9.47;;
5704;SDS011;2877;48.238;11.160;2023-09-12T06:31:09;9.83;;;8.70;;
5704;SDS011;2877;48.238;11.160;2023-09-12T06:33:34;12.83;;;9.27;;
5704;SDS011;2877;48.238;11.160;2023-09-12T06:36:00;13.07;;;8.90;;
5704;SDS011;2877;48.238;11.160;2023-09-12T06:38:25;9.77;;;8.77;;
5704;SDS011;2877;48.238;11.160;2023-09-12T06:40:51;11.33;;;9.60;;
5704;SDS011;2877;48.238;11.160;2023-09-12T06:43:17;10.17;;;8.60;;
5704;SDS011;2877;48.238;11.160;2023-09-12T06:45:42;10.60;;;8.47;;
5704;SDS011;2877;48.238;11.160;2023-09-12T06:48:08;10.80;;;9.50;;
5704;SDS011;2877;48.238;11.160;2023-09-12T06:50:34;11.03;;;8.67;;
5704;SDS011;2877;48.238;11.160;2023-09-12T06:52:59;13.17;;;9.07;;
5704;SDS011;2877;48.238;11.160;2023-09-12T06:55:25;12.50;;;9.17;;
5704;SDS011;2877;48.238;11.160;2023-09-12T06:57:50;9.67;;;8.60;;
5704;SDS011;2877;48.238;11.160;2023-09-12T07:00:16;10.20;;;8.40;;
5704;SDS011;2877;48.238;11.160;2023-09-12T07:02:42;11.70;;;9.20;;
5704;SDS011;2877;48.238;11.160;2023-09-12T07:05:08;9.63;;;8.63;;
5704;SDS011;2877;48.238;11.160;2023-09-12T07:07:34;11.00;;;9.23;;
5704;SDS011;2877;48.238;11.160;2023-09-12T07:09:59;11.93;;;9.00;;
5704;SDS011;2877;48.238;11.160;2023-09-12T07:12:28;13.03;;;8.80;;
5704;SDS011;2877;48.238;11.160;2023-09-12T07:14:54;9.50;;;8.10;;
5704;SDS011;2877;48.238;11.160;2023-09-12T07:17:20;12.67;;;8.97;;
5704;SDS011;2877;48.238;11.160;2023-09-12T07:19:46;10.00;;;8.57;;
5704;SDS011;2877;48.238;11.160;2023-09-12T07:22:12;14.40;;;8.57;;
5704;SDS011;2877;48.238;11.160;2023-09-12T07:24:37;9.00;;;8.10;;
5704;SDS011;2877;48.238;11.160;2023-09-12T07:27:03;9.50;;;8.60;;
5704;SDS011;2877;48.238;11.160;2023-09-12T07:29:29;10.93;;;9.07;;
5704;SDS011;2877;48.238;11.160;2023-09-12T07:31:54;9.20;;;8.20;;
5704;SDS011;2877;48.238;11.160;2023-09-12T07:34:21;10.57;;;8.20;;
5704;SDS011;2877;48.238;11.160;2023-09-12T07:36:48;9.70;;;8.13;;
5704;SDS011;2877;48.238;11.160;2023-09-12T07:39:16;12.23;;;8.80;;
5704;SDS011;2877;48.238;11.160;2023-09-12T07:41:42;11.57;;;8.10;;
5704;SDS011;2877;48.238;11.160;2023-09-12T07:44:07;10.87;;;7.27;;
5704;SDS011;2877;48.238;11.160;2023-09-12T07:46:36;14.07;;;8.80;;
5704;SDS011;2877;48.238;11.160;2023-09-12T07:49:02;12.37;;;8.73;;
5704;SDS011;2877;48.238;11.160;2023-09-12T07:51:28;9.90;;;8.70;;
5704;SDS011;2877;48.238;11.160;2023-09-12T07:53:53;8.73;;;7.93;;
5704;SDS011;2877;48.238;11.160;2023-09-12T07:56:19;11.83;;;8.43;;
5704;SDS011;2877;48.238;11.160;2023-09-12T07:58:44;11.73;;;8.03;;
5704;SDS011;2877;48.238;11.160;2023-09-12T08:01:10;9.23;;;8.30;;
5704;SDS011;2877;48.238;11.160;2023-09-12T08:03:36;10.57;;;8.73;;
5704;SDS011;2877;48.238;11.160;2023-09-12T08:06:03;10.30;;;8.60;;
5704;SDS011;2877;48.238;11.160;2023-09-12T08:08:29;17.47;;;8.20;;
5704;SDS011;2877;48.238;11.160;2023-09-12T08:10:55;11.53;;;9.10;;
5704;SDS011;2877;48.238;11.160;2023-09-12T08:13:22;11.60;;;8.30;;
5704;SDS011;2877;48.238;11.160;2023-09-12T08:15:48;9.63;;;8.50;;
5704;SDS011;2877;48.238;11.160;2023-09-12T08:18:13;10.63;;;8.10;;
5704;SDS011;2877;48.238;11.160;2023-09-12T08:20:40;9.67;;;7.97;;
5704;SDS011;2877;48.238;11.160;2023-09-12T08:23:05;10.37;;;8.33;;
5704;SDS011;2877;48.238;11.160;2023-09-12T08:25:31;10.17;;;8.50;;
5704;SDS011;2877;48.238;11.160;2023-09-12T08:27:57;10.67;;;8.23;;
5704;SDS011;2877;48.238;11.160;2023-09-12T08:30:23;10.10;;;8.30;;
5704;SDS011;2877;48.238;11.160;2023-09-12T08:32:50;9.90;;;8.67;;
5704;SDS011;2877;48.238;11.160;2023-09-12T08:35:16;9.90;;;8.40;;
5704;SDS011;2877;48.238;11.160;2023-09-12T08:37:42;9.60;;;8.60;;
5704;SDS011;2877;48.238;11.160;2023-09-12T08:40:08;13.83;;;8.40;;
5704;SDS011;2877;48.238;11.160;2023-09-12T08:42:39;10.20;;;8.47;;
5704;SDS011;2877;48.238;11.160;2023-09-12T08:45:06;8.87;;;7.97;;
5704;SDS011;2877;48.238;11.160;2023-09-12T08:47:43;9.70;;;8.70;;
5704;SDS011;2877;48.238;11.160;2023-09-12T08:50:11;9.33;;;8.43;;
5704;SDS011;2877;48.238;11.160;2023-09-12T08:52:38;9.23;;;8.17;;
5704;SDS011;2877;48.238;11.160;2023-09-12T08:55:07;9.73;;;7.80;;
5704;SDS011;2877;48.238;11.160;2023-09-12T08:57:33;10.40;;;7.60;;
5704;SDS011;2877;48.238;11.160;2023-09-12T09:00:01;9.17;;;8.20;;
5704;SDS011;2877;48.238;11.160;2023-09-12T09:02:31;12.00;;;7.23;;
5704;SDS011;2877;48.238;11.160;2023-09-12T09:04:58;8.50;;;7.70;;
5704;SDS011;2877;48.238;11.160;2023-09-12T09:07:25;9.87;;;8.97;;
5704;SDS011;2877;48.238;11.160;2023-09-12T09:09:52;7.87;;;7.17;;
5704;SDS011;2877;48.238;11.160;2023-09-12T09:12:18;8.00;;;7.20;;
5704;SDS011;2877;48.238;11.160;2023-09-12T09:14:44;9.47;;;7.60;;
5704;SDS011;2877;48.238;11.160;2023-09-12T09:17:10;11.17;;;7.40;;
5704;SDS011;2877;48.238;11.160;2023-09-12T09:19:41;10.27;;;7.63;;
5704;SDS011;2877;48.238;11.160;2023-09-12T09:22:07;12.47;;;8.20;;
5704;SDS011;2877;48.238;11.160;2023-09-12T09:24:33;8.60;;;7.73;;
5704;SDS011;2877;48.238;11.160;2023-09-12T09:26:58;9.20;;;7.30;;
5704;SDS011;2877;48.238;11.160;2023-09-12T09:29:25;8.07;;;7.20;;
5704;SDS011;2877;48.238;11.160;2023-09-12T09:31:53;7.63;;;6.83;;
5704;SDS011;2877;48.238;11.160;2023-09-12T09:34:19;8.73;;;7.50;;
5704;SDS011;2877;48.238;11.160;2023-09-12T09:36:50;8.20;;;7.20;;
5704;SDS011;2877;48.238;11.160;2023-09-12T09:39:26;7.37;;;6.67;;
5704;SDS011;2877;48.238;11.160;2023-09-12T09:41:56;8.00;;;7.20;;
5704;SDS011;2877;48.238;11.160;2023-09-12T09:44:23;8.50;;;7.70;;
5704;SDS011;2877;48.238;11.160;2023-09-12T09:46:51;9.00;;;7.57;;
5704;SDS011;2877;48.238;11.160;2023-09-12T09:49:20;8.17;;;7.30;;
5704;SDS011;2877;48.238;11.160;2023-09-12T09:51:46;8.30;;;7.50;;
5704;SDS011;2877;48.238;11.160;2023-09-12T09:54:13;8.80;;;6.80;;
5704;SDS011;2877;48.238;11.160;2023-09-12T09:59:13;7.50;;;6.73;;
5704;SDS011;2877;48.238;11.160;2023-09-12T10:01:40;7.50;;;6.80;;
5704;SDS011;2877;48.238;11.160;2023-09-12T10:04:06;8.83;;;6.93;;
5704;SDS011;2877;48.238;11.160;2023-09-12T10:06:33;15.60;;;7.43;;
5704;SDS011;2877;48.238;11.160;2023-09-12T10:09:02;10.03;;;7.23;;
5704;SDS011;2877;48.238;11.160;2023-09-12T10:11:32;8.63;;;6.40;;
5704;SDS011;2877;48.238;11.160;2023-09-12T10:13:59;7.70;;;7.00;;
5704;SDS011;2877;48.238;11.160;2023-09-12T10:16:29;7.17;;;6.47;;
5704;SDS011;2877;48.238;11.160;2023-09-12T10:19:02;10.10;;;7.00;;
5704;SDS011;2877;48.238;11.160;2023-09-12T10:21:31;10.33;;;6.87;;
5704;SDS011;2877;48.238;11.160;2023-09-12T10:23:59;7.37;;;6.60;;
5704;SDS011;2877;48.238;11.160;2023-09-12T10:26:26;6.70;;;6.10;;
5704;SDS011;2877;48.238;11.160;2023-09-12T10:28:53;7.23;;;6.50;;
5704;SDS011;2877;48.238;11.160;2023-09-12T10:31:20;7.23;;;6.53;;
5704;SDS011;2877;48.238;11.160;2023-09-12T10:33:48;7.60;;;6.90;;
5704;SDS011;2877;48.238;11.160;2023-09-12T10:36:15;8.13;;;7.30;;
5704;SDS011;2877;48.238;11.160;2023-09-12T10:38:43;9.30;;;7.00;;
5704;SDS011;2877;48.238;11.160;2023-09-12T10:41:11;7.60;;;6.90;;
5704;SDS011;2877;48.238;11.160;2023-09-12T10:43:38;8.40;;;6.70;;
5704;SDS011;2877;48.238;11.160;2023-09-12T10:46:06;7.10;;;6.40;;
5704;SDS011;2877;48.238;11.160;2023-09-12T10:48:32;7.17;;;6.00;;
5704;SDS011;2877;48.238;11.160;2023-09-12T10:50:59;6.80;;;6.20;;
5704;SDS011;2877;48.238;11.160;2023-09-12T10:53:27;6.93;;;6.23;;
5704;SDS011;2877;48.238;11.160;2023-09-12T10:56:00;7.47;;;6.63;;
5704;SDS011;2877;48.238;11.160;2023-09-12T11:01:34;8.50;;;6.60;;
5704;SDS011;2877;48.238;11.160;2023-09-12T11:06:49;6.00;;;5.50;;
5704;SDS011;2877;48.238;11.160;2023-09-12T11:09:15;6.37;;;5.77;;
5704;SDS011;2877;48.238;11.160;2023-09-12T11:12:03;6.77;;;6.17;;
5704;SDS011;2877;48.238;11.160;2023-09-12T11:14:30;6.40;;;5.87;;
5704;SDS011;2877;48.238;11.160;2023-09-12T11:17:39;7.37;;;6.60;;
5704;SDS011;2877;48.238;11.160;2023-09-12T11:19:47;6.97;;;6.03;;
5704;SDS011;2877;48.238;11.160;2023-09-12T11:22:26;7.07;;;5.97;;
5704;SDS011;2877;48.238;11.160;2023-09-12T11:24:54;6.40;;;5.80;;
5704;SDS011;2877;48.238;11.160;2023-09-12T11:27:33;6.80;;;6.03;;
5704;SDS011;2877;48.238;11.160;2023-09-12T11:30:15;8.00;;;6.20;;
5704;SDS011;2877;48.238;11.160;2023-09-12T11:32:41;6.83;;;6.07;;
5704;SDS011;2877;48.238;11.160;2023-09-12T11:35:10;6.63;;;6.07;;
5704;SDS011;2877;48.238;11.160;2023-09-12T11:37:36;7.27;;;6.57;;
5704;SDS011;2877;48.238;11.160;2023-09-12T11:40:24;6.70;;;5.93;;
5704;SDS011;2877;48.238;11.160;2023-09-12T11:42:51;9.03;;;6.33;;
5704;SDS011;2877;48.238;11.160;2023-09-12T11:45:18;6.80;;;5.70;;
5704;SDS011;2877;48.238;11.160;2023-09-12T11:47:45;6.30;;;5.60;;
5704;SDS011;2877;48.238;11.160;2023-09-12T11:50:30;5.67;;;5.17;;
5704;SDS011;2877;48.238;11.160;2023-09-12T11:52:58;5.17;;;4.67;;
5704;SDS011;2877;48.238;11.160;2023-09-12T11:55:34;5.40;;;4.93;;
5704;SDS011;2877;48.238;11.160;2023-09-12T11:58:11;5.60;;;5.20;;
5704;SDS011;2877;48.238;11.160;2023-09-12T12:00:42;5.80;;;5.30;;
5704;SDS011;2877;48.238;11.160;2023-09-12T12:03:14;6.50;;;5.50;;
5704;SDS011;2877;48.238;11.160;2023-09-12T12:05:40;5.70;;;4.83;;
5704;SDS011;2877;48.238;11.160;2023-09-12T12:08:07;7.00;;;5.10;;
5704;SDS011;2877;48.238;11.160;2023-09-12T12:10:33;5.70;;;5.20;;
5704;SDS011;2877;48.238;11.160;2023-09-12T12:12:59;5.40;;;4.90;;
5704;SDS011;2877;48.238;11.160;2023-09-12T12:15:27;6.20;;;5.27;;
5704;SDS011;2877;48.238;11.160;2023-09-12T12:17:56;6.20;;;5.03;;
5704;SDS011;2877;48.238;11.160;2023-09-12T12:20:22;6.50;;;4.73;;
5704;SDS011;2877;48.238;11.160;2023-09-12T12:22:48;6.10;;;4.83;;
5704;SDS011;2877;48.238;11.160;2023-09-12T12:25:16;5.73;;;5.13;;
5704;SDS011;2877;48.238;11.160;2023-09-12T12:27:42;6.73;;;5.37;;
5704;SDS011;2877;48.238;11.160;2023-09-12T12:30:09;7.67;;;5.10;;
5704;SDS011;2877;48.238;11.160;2023-09-12T12:32:39;5.53;;;5.13;;
5704;SDS011;2877;48.238;11.160;2023-09-12T12:35:06;5.43;;;4.60;;
5704;SDS011;2877;48.238;11.160;2023-09-12T12:37:33;4.93;;;4.53;;
5704;SDS011;2877;48.238;11.160;2023-09-12T12:39:59;6.03;;;4.50;;
5704;SDS011;2877;48.238;11.160;2023-09-12T12:42:28;5.57;;;4.87;;
5704;SDS011;2877;48.238;11.160;2023-09-12T12:44:58;5.50;;;4.70;;
5704;SDS011;2877;48.238;11.160;2023-09-12T12:47:24;5.70;;;4.20;;
5704;SDS011;2877;48.238;11.160;2023-09-12T12:49:51;5.33;;;4.60;;
5704;SDS011;2877;48.238;11.160;2023-09-12T12:52:21;5.27;;;4.87;;
5704;SDS011;2877;48.238;11.160;2023-09-12T12:54:47;4.83;;;4.40;;
5704;SDS011;2877;48.238;11.160;2023-09-12T12:57:17;6.23;;;4.40;;
5704;SDS011;2877;48.238;11.160;2023-09-12T12:59:47;4.70;;;4.30;;
5704;SDS011;2877;48.238;11.160;2023-09-12T13:02:13;4.53;;;4.13;;
5704;SDS011;2877;48.238;11.160;2023-09-12T13:04:39;4.77;;;3.83;;
5704;SDS011;2877;48.238;11.160;2023-09-12T13:07:05;4.60;;;4.20;;
5704;SDS011;2877;48.238;11.160;2023-09-12T13:09:31;4.93;;;4.00;;
5704;SDS011;2877;48.238;11.160;2023-09-12T13:11:57;6.70;;;4.50;;
5704;SDS011;2877;48.238;11.160;2023-09-12T13:14:23;4.30;;;4.00;;
5704;SDS011;2877;48.238;11.160;2023-09-12T13:16:55;4.50;;;4.10;;
5704;SDS011;2877;48.238;11.160;2023-09-12T13:19:21;4.90;;;4.40;;
5704;SDS011;2877;48.238;11.160;2023-09-12T13:21:47;5.10;;;3.72;;
5704;SDS011;2877;48.238;11.160;2023-09-12T13:24:13;4.80;;;4.40;;
5704;SDS011;2877;48.238;11.160;2023-09-12T13:26:38;8.15;;;4.35;;
5704;SDS011;2877;48.238;11.160;2023-09-12T13:29:05;4.53;;;4.13;;
5704;SDS011;2877;48.238;11.160;2023-09-12T13:31:30;4.03;;;3.72;;
5704;SDS011;2877;48.238;11.160;2023-09-12T13:33:56;4.00;;;3.80;;
5704;SDS011;2877;48.238;11.160;2023-09-12T13:36:22;4.10;;;3.70;;
5704;SDS011;2877;48.238;11.160;2023-09-12T13:38:49;4.70;;;4.28;;
5704;SDS011;2877;48.238;11.160;2023-09-12T13:41:16;3.75;;;3.55;;
5704;SDS011;2877;48.238;11.160;2023-09-12T13:43:42;4.60;;;4.20;;
5704;SDS011;2877;48.238;11.160;2023-09-12T13:46:10;5.72;;;3.55;;
5704;SDS011;2877;48.238;11.160;2023-09-12T13:48:35;4.63;;;3.70;;
5704;SDS011;2877;48.238;11.160;2023-09-12T13:51:01;4.43;;;4.03;;
5704;SDS011;2877;48.238;11.160;2023-09-12T13:53:27;4.17;;;3.97;;
5704;SDS011;2877;48.238;11.160;2023-09-12T13:55:53;4.53;;;4.20;;
5704;SDS011;2877;48.238;11.160;2023-09-12T13:58:18;4.67;;;4.17;;
5704;SDS011;2877;48.238;11.160;2023-09-12T14:00:44;4.60;;;4.27;;
5704;SDS011;2877;48.238;11.160;2023-09-12T14:03:10;9.40;;;4.00;;
5704;SDS011;2877;48.238;11.160;2023-09-12T14:05:35;5.00;;;4.47;;
5704;SDS011;2877;48.238;11.160;2023-09-12T14:08:01;4.73;;;4.23;;
5704;SDS011;2877;48.238;11.160;2023-09-12T14:10:26;8.70;;;4.63;;
5704;SDS011;2877;48.238;11.160;2023-09-12T14:12:52;6.53;;;4.63;;
5704;SDS011;2877;48.238;11.160;2023-09-12T14:15:17;4.83;;;4.43;;
5704;SDS011;2877;48.238;11.160;2023-09-12T14:17:43;5.37;;;4.87;;
5704;SDS011;2877;48.238;11.160;2023-09-12T14:20:09;4.60;;;4.00;;
5704;SDS011;2877;48.238;11.160;2023-09-12T14:22:35;6.83;;;5.63;;
5704;SDS011;2877;48.238;11.160;2023-09-12T14:25:01;5.60;;;5.10;;
5704;SDS011;2877;48.238;11.160;2023-09-12T14:27:27;4.80;;;4.50;;
5704;SDS011;2877;48.238;11.160;2023-09-12T14:29:53;9.43;;;8.53;;
5704;SDS011;2877;48.238;11.160;2023-09-12T14:32:18;7.17;;;6.47;;
5704;SDS011;2877;48.238;11.160;2023-09-12T14:34:44;6.90;;;5.23;;
5704;SDS011;2877;48.238;11.160;2023-09-12T14:37:10;5.43;;;4.30;;
5704;SDS011;2877;48.238;11.160;2023-09-12T14:39:36;7.27;;;4.70;;
5704;SDS011;2877;48.238;11.160;2023-09-12T14:42:02;5.13;;;4.63;;
5704;SDS011;2877;48.238;11.160;2023-09-12T14:44:33;5.70;;;5.10;;
5704;SDS011;2877;48.238;11.160;2023-09-12T14:46:58;7.70;;;5.20;;
5704;SDS011;2877;48.238;11.160;2023-09-12T14:49:24;7.53;;;5.63;;
5704;SDS011;2877;48.238;11.160;2023-09-12T14:51:50;5.77;;;5.27;;
5704;SDS011;2877;48.238;11.160;2023-09-12T14:54:16;12.03;;;5.80;;
5704;SDS011;2877;48.238;11.160;2023-09-12T14:56:41;5.60;;;5.10;;
5704;SDS011;2877;48.238;11.160;2023-09-12T14:59:07;5.37;;;4.90;;
5704;SDS011;2877;48.238;11.160;2023-09-12T15:01:33;6.10;;;5.50;;